createdAt,value
2022-10-17T04:45:55.257Z,15.65
2022-10-17T04:46:56.229Z,15.62
2022-10-17T04:47:56.224Z,15.62
2022-10-17T04:48:56.226Z,15.57
2022-10-17T04:49:56.201Z,15.56
2022-10-17T04:50:56.192Z,15.56
2022-10-17T04:51:56.176Z,15.56
2022-10-17T04:52:56.172Z,15.62
2022-10-17T04:53:56.172Z,15.69
2022-10-17T04:54:56.145Z,15.71
2022-10-17T04:55:56.135Z,15.72
2022-10-17T04:56:56.123Z,15.74
2022-10-17T04:57:56.111Z,15.72
2022-10-17T04:58:56.116Z,15.69
2022-10-17T04:59:56.145Z,15.76
2022-10-17T05:00:56.116Z,15.86
2022-10-17T05:01:56.072Z,15.86
2022-10-17T05:02:56.059Z,15.83
2022-10-17T05:03:56.070Z,15.86
2022-10-17T05:04:56.031Z,15.89
2022-10-17T05:05:56.028Z,15.93
2022-10-17T05:06:56.016Z,15.94
2022-10-17T05:07:56.010Z,15.96
2022-10-17T05:08:56.035Z,15.90
2022-10-17T05:09:55.986Z,15.89
2022-10-17T05:10:56.025Z,15.90
2022-10-17T05:11:55.967Z,15.89
2022-10-17T05:12:55.947Z,15.86
2022-10-17T05:13:55.987Z,15.89
2022-10-17T05:14:55.927Z,15.93
2022-10-17T05:15:55.921Z,15.96
2022-10-17T05:16:55.916Z,15.92
2022-10-17T05:17:55.900Z,15.94
2022-10-17T05:18:55.904Z,15.96
2022-10-17T05:19:55.891Z,15.96
2022-10-17T05:20:55.867Z,15.97
2022-10-17T05:21:55.861Z,16.02
2022-10-17T05:22:55.847Z,16.04
2022-10-17T05:23:55.855Z,16.08
2022-10-17T05:24:55.825Z,16.08
2022-10-17T05:25:55.815Z,16.07
2022-10-17T05:26:55.803Z,16.02
2022-10-17T05:27:55.796Z,16.01
2022-10-17T05:28:55.884Z,16.00
2022-10-17T05:29:55.776Z,16.02
2022-10-17T05:30:55.759Z,16.05
2022-10-17T05:31:55.837Z,16.05
2022-10-17T05:32:55.740Z,16.02
2022-10-17T05:33:55.757Z,16.01
2022-10-17T05:34:55.721Z,16.04
2022-10-17T05:35:55.719Z,16.04
2022-10-17T05:36:55.700Z,16.07
2022-10-17T05:37:55.700Z,16.05
2022-10-17T05:38:55.688Z,16.07
2022-10-17T05:39:55.671Z,16.07
2022-10-17T05:40:55.658Z,16.05
2022-10-17T05:41:55.654Z,16.00
2022-10-17T05:42:55.633Z,15.97
2022-10-17T05:43:55.643Z,16.02
2022-10-17T05:44:55.614Z,16.04
2022-10-17T05:45:55.615Z,16.02
2022-10-17T05:46:55.594Z,16.04
2022-10-17T05:47:55.574Z,16.01
2022-10-17T05:48:55.572Z,16.08
2022-10-17T05:49:55.563Z,16.08
2022-10-17T05:50:55.550Z,16.09
2022-10-17T05:51:55.546Z,16.09
2022-10-17T05:52:55.531Z,16.08
2022-10-17T05:53:55.546Z,16.07
2022-10-17T05:54:55.511Z,16.04
2022-10-17T05:55:55.501Z,16.05
2022-10-17T05:56:55.487Z,16.08
2022-10-17T05:57:55.485Z,16.08
2022-10-17T05:59:00.786Z,16.11
2022-10-17T05:59:55.472Z,16.09
2022-10-17T06:00:55.445Z,16.09
2022-10-17T06:01:55.525Z,16.12
2022-10-17T06:02:55.427Z,16.12
2022-10-17T06:03:55.435Z,16.08
2022-10-17T06:04:55.406Z,16.12
2022-10-17T06:05:55.399Z,16.17
2022-10-17T06:06:55.388Z,16.20
2022-10-17T06:07:58.245Z,16.20
2022-10-17T06:08:55.371Z,16.23
2022-10-17T06:09:55.377Z,16.24
2022-10-17T06:10:55.339Z,16.24
2022-10-17T06:11:55.338Z,16.23
2022-10-17T06:12:55.316Z,16.24
2022-10-17T06:13:55.318Z,16.25
2022-10-17T06:14:55.316Z,16.27
2022-10-17T06:15:55.296Z,16.24
2022-10-17T06:16:55.279Z,16.28
2022-10-17T06:17:55.275Z,16.34
2022-10-17T06:18:55.263Z,16.43
2022-10-17T06:19:55.262Z,16.48
2022-10-17T06:20:55.234Z,16.48
2022-10-17T06:21:55.229Z,16.53
2022-10-17T06:22:55.212Z,16.63
2022-10-17T06:23:55.218Z,16.81
2022-10-17T06:24:55.210Z,16.88
2022-10-17T06:25:55.185Z,16.85
2022-10-17T06:26:55.171Z,16.91
2022-10-17T06:27:55.170Z,16.88
2022-10-17T06:28:55.232Z,16.85
2022-10-17T06:29:55.180Z,16.83
2022-10-17T06:30:55.125Z,16.81
2022-10-17T06:31:55.126Z,16.82
2022-10-17T06:32:55.105Z,16.83
2022-10-17T06:33:55.104Z,16.93
2022-10-17T06:34:55.102Z,17.01
2022-10-17T06:35:55.078Z,17.04
2022-10-17T06:37:55.068Z,17.18
2022-10-17T06:38:55.050Z,17.18
2022-10-17T06:39:55.056Z,17.30
2022-10-17T06:40:55.019Z,17.30
2022-10-17T06:41:55.017Z,17.28
2022-10-17T06:42:55.003Z,17.25
2022-10-17T06:43:55.001Z,17.26
2022-10-17T06:44:54.995Z,17.28
2022-10-17T06:45:54.977Z,17.25
2022-10-17T06:46:54.961Z,17.30
2022-10-17T06:47:54.951Z,17.34
2022-10-17T06:48:54.936Z,17.33
2022-10-17T06:49:54.946Z,17.15
2022-10-17T06:50:54.912Z,17.12
2022-10-17T06:51:54.921Z,17.08
2022-10-17T06:52:54.896Z,17.07
2022-10-17T06:53:54.891Z,17.12
2022-10-17T06:54:54.912Z,17.21
2022-10-17T06:55:54.864Z,17.26
2022-10-17T06:56:54.854Z,17.36
2022-10-17T06:57:54.844Z,17.40
2022-10-17T06:58:54.826Z,17.46
2022-10-17T06:59:54.836Z,17.56
2022-10-17T07:00:58.641Z,17.59
2022-10-17T07:01:55.059Z,17.62
2022-10-17T07:02:54.791Z,17.62
2022-10-17T07:03:54.787Z,17.54
2022-10-17T07:04:54.794Z,17.63
2022-10-17T07:05:54.767Z,17.68
2022-10-17T07:06:54.808Z,17.72
2022-10-17T07:07:54.751Z,17.72
2022-10-17T07:08:54.726Z,17.72
2022-10-17T07:09:54.725Z,17.75
2022-10-17T07:10:54.721Z,17.72
2022-10-17T07:11:54.699Z,17.71
2022-10-17T07:12:54.688Z,17.71
2022-10-17T07:13:54.675Z,17.71
2022-10-17T07:14:54.659Z,17.77
2022-10-17T07:15:54.735Z,17.74
2022-10-17T07:16:54.648Z,17.77
2022-10-17T07:17:54.638Z,17.78
2022-10-17T07:18:54.623Z,17.78
2022-10-17T07:19:54.621Z,17.82
2022-10-17T07:20:54.613Z,17.86
2022-10-17T07:21:54.592Z,17.87
2022-10-17T07:22:54.576Z,17.89
2022-10-17T07:23:54.571Z,17.93
2022-10-17T07:24:54.561Z,18.00
2022-10-17T07:25:54.567Z,18.03
2022-10-17T07:26:54.529Z,18.05
2022-10-17T07:27:54.528Z,18.11
2022-10-17T07:28:54.536Z,18.15
2022-10-17T07:29:54.510Z,18.23
2022-10-17T07:30:54.649Z,18.23
2022-10-17T07:31:54.488Z,18.26
2022-10-17T07:32:54.473Z,18.26
2022-10-17T07:33:54.606Z,18.29
2022-10-17T07:34:54.451Z,18.36
2022-10-17T07:35:54.458Z,18.42
2022-10-17T07:36:54.423Z,18.44
2022-10-17T07:37:54.421Z,18.47
2022-10-17T07:38:54.403Z,18.47
2022-10-17T07:39:54.398Z,18.54
2022-10-17T07:40:54.406Z,18.63
2022-10-17T07:41:54.375Z,18.63
2022-10-17T07:42:54.362Z,18.60
2022-10-17T07:43:54.363Z,18.66
2022-10-17T07:44:54.339Z,18.66
2022-10-17T07:45:54.351Z,18.63
2022-10-17T07:46:54.319Z,18.65
2022-10-17T07:47:54.312Z,18.66
2022-10-17T07:48:54.299Z,18.65
2022-10-17T07:49:54.298Z,18.62
2022-10-17T07:50:54.299Z,18.65
2022-10-17T07:51:54.268Z,18.72
2022-10-17T07:52:54.264Z,18.76
2022-10-17T07:53:54.246Z,18.75
2022-10-17T07:54:54.235Z,18.78
2022-10-17T07:55:54.245Z,18.87
2022-10-17T07:56:54.217Z,18.90
2022-10-17T07:57:54.226Z,18.92
2022-10-17T07:58:54.276Z,18.95
2022-10-17T07:59:54.186Z,19.07
2022-10-17T08:00:54.358Z,19.13
2022-10-17T08:01:54.167Z,19.10
2022-10-17T08:02:54.150Z,19.16
2022-10-17T08:03:54.144Z,19.19
2022-10-17T08:04:54.123Z,19.23
2022-10-17T08:05:54.124Z,19.26
2022-10-17T08:07:05.465Z,19.25
2022-10-17T08:07:54.098Z,19.26
2022-10-17T08:08:54.083Z,19.26
2022-10-17T08:09:54.115Z,19.28
2022-10-17T08:10:54.064Z,19.32
2022-10-17T08:11:54.070Z,19.43
2022-10-17T08:12:54.045Z,19.39
2022-10-17T08:13:54.043Z,19.41
2022-10-17T08:14:54.029Z,19.43
2022-10-17T08:15:54.027Z,19.55
2022-10-17T08:16:54.010Z,19.58
2022-10-17T08:17:53.996Z,19.62
2022-10-17T08:18:53.980Z,19.48
2022-10-17T08:19:53.981Z,19.55
2022-10-17T08:20:56.801Z,19.66
2022-10-17T08:21:53.960Z,19.65
2022-10-17T08:22:53.934Z,19.68
2022-10-17T08:23:53.926Z,19.73
2022-10-17T08:24:53.917Z,19.77
2022-10-17T08:25:53.908Z,19.87
2022-10-17T08:26:53.911Z,19.96
2022-10-17T08:27:53.948Z,20.08
2022-10-17T08:28:53.921Z,20.13
2022-10-17T08:29:53.865Z,20.16
2022-10-17T08:30:53.868Z,20.29
2022-10-17T08:31:58.556Z,20.35
2022-10-17T08:32:53.838Z,20.32
2022-10-17T08:33:53.823Z,20.26
2022-10-17T08:34:53.809Z,20.23
2022-10-17T08:35:53.818Z,20.21
2022-10-17T08:36:53.798Z,20.17
2022-10-17T08:37:53.794Z,20.16
2022-10-17T08:38:53.774Z,20.06
2022-10-17T08:39:53.765Z,20.10
2022-10-17T08:40:53.780Z,20.05
2022-10-17T08:41:53.740Z,20.05
2022-10-17T08:42:53.735Z,20.02
2022-10-17T08:43:53.754Z,20.05
2022-10-17T08:44:53.721Z,20.05
2022-10-17T08:45:53.842Z,20.21
2022-10-17T08:46:53.689Z,20.35
2022-10-17T08:47:53.681Z,20.36
2022-10-17T08:48:53.669Z,20.20
2022-10-17T08:49:53.655Z,20.31
2022-10-17T08:50:53.649Z,20.43
2022-10-17T08:51:53.661Z,20.57
2022-10-17T08:52:53.629Z,20.69
2022-10-17T08:53:53.623Z,20.89
2022-10-17T08:54:53.605Z,21.12
2022-10-17T08:55:53.603Z,21.22
2022-10-17T08:56:53.607Z,21.62
2022-10-17T08:57:53.579Z,21.91
2022-10-17T08:58:53.573Z,21.96
2022-10-17T08:59:53.603Z,21.98
2022-10-17T09:00:53.548Z,21.74
2022-10-17T09:01:53.547Z,21.91
2022-10-17T09:02:53.607Z,22.33
2022-10-17T09:03:53.512Z,22.42
2022-10-17T09:04:53.505Z,22.60
2022-10-17T09:05:53.498Z,22.37
2022-10-17T09:06:53.494Z,22.73
2022-10-17T09:07:53.514Z,22.72
2022-10-17T09:08:53.462Z,22.91
2022-10-17T09:09:53.453Z,23.07
2022-10-17T09:10:53.440Z,23.23
2022-10-17T09:11:53.445Z,23.48
2022-10-17T09:12:53.423Z,23.94
2022-10-17T09:13:53.401Z,23.90
2022-10-17T09:14:53.398Z,23.43
2022-10-17T09:15:53.387Z,23.32
2022-10-17T09:16:53.386Z,23.76
2022-10-17T09:17:53.363Z,23.78
2022-10-17T09:18:53.362Z,23.93
2022-10-17T09:19:53.341Z,23.87
2022-10-17T09:20:53.333Z,23.95
2022-10-17T09:21:53.326Z,23.87
2022-10-17T09:22:53.368Z,24.25
2022-10-17T09:23:59.684Z,24.85
2022-10-17T09:24:53.301Z,25.33
2022-10-17T09:25:53.275Z,25.20
2022-10-17T09:26:53.284Z,24.90
2022-10-17T09:27:53.258Z,24.88
2022-10-17T09:28:53.372Z,24.55
2022-10-17T09:29:53.233Z,24.03
2022-10-17T09:30:53.230Z,24.34
2022-10-17T09:31:53.318Z,24.24
2022-10-17T09:32:53.211Z,24.47
2022-10-17T09:33:54.597Z,24.53
2022-10-17T09:34:53.193Z,24.69
2022-10-17T09:35:53.179Z,24.25
2022-10-17T09:36:53.198Z,24.05
2022-10-17T09:37:53.150Z,24.05
2022-10-17T09:38:53.145Z,23.91
2022-10-17T09:39:53.128Z,23.97
2022-10-17T09:40:56.841Z,23.53
2022-10-17T09:41:53.127Z,22.94
2022-10-17T09:42:53.105Z,22.77
2022-10-17T09:43:53.089Z,22.49
2022-10-17T09:44:53.082Z,22.37
2022-10-17T09:45:53.069Z,22.02
2022-10-17T09:46:53.063Z,21.72
2022-10-17T09:47:53.065Z,21.69
2022-10-17T09:48:53.538Z,21.56
2022-10-17T09:49:53.030Z,21.44
2022-10-17T09:51:02.625Z,21.37
2022-10-17T09:51:53.015Z,21.37
2022-10-17T09:52:53.017Z,21.35
2022-10-17T09:53:52.984Z,21.27
2022-10-17T09:54:52.982Z,21.27
2022-10-17T09:55:52.971Z,21.21
2022-10-17T09:56:52.961Z,21.10
2022-10-17T09:57:52.964Z,21.09
2022-10-17T09:58:52.937Z,21.31
2022-10-17T09:59:52.923Z,21.71
2022-10-17T10:00:52.989Z,21.83
2022-10-17T10:01:52.902Z,22.31
2022-10-17T10:02:52.914Z,22.14
2022-10-17T10:03:52.884Z,22.95
2022-10-17T10:05:03.735Z,23.63
2022-10-17T10:05:52.871Z,23.79
2022-10-17T10:06:52.855Z,23.78
2022-10-17T10:07:52.854Z,23.66
2022-10-17T10:08:52.837Z,23.35
2022-10-17T10:09:52.813Z,23.13
2022-10-17T10:10:52.815Z,23.01
2022-10-17T10:11:52.799Z,23.15
2022-10-17T10:12:52.816Z,23.00
2022-10-17T10:13:52.787Z,22.76
2022-10-17T10:14:54.745Z,22.49
2022-10-17T10:15:52.758Z,22.42
2022-10-17T10:16:52.747Z,22.31
2022-10-17T10:17:52.748Z,22.27
2022-10-17T10:18:52.734Z,22.46
2022-10-17T10:19:52.716Z,22.79
2022-10-17T10:20:52.719Z,23.07
2022-10-17T10:21:52.699Z,23.13
2022-10-17T10:22:54.981Z,23.22
2022-10-17T10:23:52.676Z,23.31
2022-10-17T10:24:52.664Z,23.19
2022-10-17T10:25:52.655Z,23.36
2022-10-17T10:26:52.649Z,24.05
2022-10-17T10:27:52.646Z,24.57
2022-10-17T10:28:52.702Z,24.85
2022-10-17T10:29:52.611Z,24.37
2022-10-17T10:30:52.608Z,24.20
2022-10-17T10:31:52.593Z,23.94
2022-10-17T10:32:52.602Z,23.57
2022-10-17T10:33:56.704Z,23.13
2022-10-17T10:34:52.565Z,22.91
2022-10-17T10:35:52.548Z,22.77
2022-10-17T10:36:52.541Z,22.54
2022-10-17T10:37:52.550Z,22.51
2022-10-17T10:38:52.523Z,22.42
2022-10-17T10:39:52.505Z,22.43
2022-10-17T10:40:52.505Z,22.47
2022-10-17T10:41:52.487Z,22.57
2022-10-17T10:42:52.475Z,22.45
2022-10-17T10:43:52.480Z,22.52
2022-10-17T10:44:52.460Z,22.60
2022-10-17T10:45:52.437Z,22.55
2022-10-17T10:46:52.442Z,22.43
2022-10-17T10:47:52.427Z,22.42
2022-10-17T10:48:52.430Z,22.43
2022-10-17T10:49:52.404Z,22.46
2022-10-17T10:50:52.397Z,22.47
2022-10-17T10:51:52.380Z,22.40
2022-10-17T10:52:52.370Z,22.18
2022-10-17T10:53:52.376Z,22.10
2022-10-17T10:54:52.358Z,22.22
2022-10-17T10:55:52.360Z,22.09
2022-10-17T10:56:53.494Z,22.02
2022-10-17T10:57:52.321Z,22.00
2022-10-17T10:58:52.327Z,21.98
2022-10-17T10:59:52.299Z,21.96
2022-10-17T11:00:52.322Z,21.84
2022-10-17T11:01:52.284Z,21.75
2022-10-17T11:02:52.268Z,21.80
2022-10-17T11:03:52.279Z,21.91
2022-10-17T11:04:52.252Z,21.84
2022-10-17T11:05:52.242Z,21.86
2022-10-17T11:06:52.233Z,21.92
2022-10-17T11:07:52.218Z,21.90
2022-10-17T11:08:52.209Z,21.82
2022-10-17T11:09:52.203Z,21.83
2022-10-17T11:10:52.198Z,21.91
2022-10-17T11:11:52.176Z,22.03
2022-10-17T11:12:52.170Z,21.98
2022-10-17T11:13:54.075Z,21.96
2022-10-17T11:14:52.162Z,21.90
2022-10-17T11:15:52.135Z,21.86
2022-10-17T11:16:52.127Z,21.80
2022-10-17T11:17:52.114Z,21.80
2022-10-17T11:18:52.115Z,21.79
2022-10-17T11:19:52.106Z,21.74
2022-10-17T11:20:52.087Z,21.82
2022-10-17T11:21:52.079Z,21.88
2022-10-17T11:22:52.065Z,21.98
2022-10-17T11:23:52.068Z,22.00
2022-10-17T11:24:52.060Z,22.06
2022-10-17T11:25:52.031Z,22.10
2022-10-17T11:26:52.031Z,22.21
2022-10-17T11:27:51.999Z,22.25
2022-10-17T11:28:52.066Z,22.25
2022-10-17T11:29:52.023Z,22.21
2022-10-17T11:30:51.982Z,22.21
2022-10-17T11:31:51.972Z,22.25
2022-10-17T11:32:51.965Z,22.31
2022-10-17T11:33:51.949Z,22.18
2022-10-17T11:34:51.959Z,22.10
2022-10-17T11:35:51.922Z,22.03
2022-10-17T11:36:51.923Z,22.00
2022-10-17T11:37:51.905Z,21.96
2022-10-17T11:38:51.899Z,21.86
2022-10-17T11:39:51.899Z,21.82
2022-10-17T11:40:51.882Z,21.71
2022-10-17T11:41:53.294Z,21.59
2022-10-17T11:42:51.857Z,21.62
2022-10-17T11:43:51.841Z,21.61
2022-10-17T11:44:51.932Z,21.64
2022-10-17T11:45:52.546Z,21.68
2022-10-17T11:46:51.818Z,21.65
2022-10-17T11:47:51.804Z,21.62
2022-10-17T11:48:51.817Z,21.64
2022-10-17T11:49:52.231Z,21.67
2022-10-17T11:52:00.782Z,21.54
2022-10-17T11:52:56.387Z,21.49
2022-10-17T11:53:51.742Z,21.52
2022-10-17T11:54:51.748Z,21.53
2022-10-17T11:55:51.720Z,21.62
2022-10-17T11:56:51.716Z,21.67
2022-10-17T11:57:51.712Z,21.68
2022-10-17T11:58:51.723Z,21.74
2022-10-17T11:59:51.776Z,21.77
2022-10-17T12:00:51.697Z,21.65
2022-10-17T12:01:51.684Z,21.67
2022-10-17T12:02:51.675Z,21.53
2022-10-17T12:03:51.640Z,21.52
2022-10-17T12:04:51.710Z,21.47
2022-10-17T12:05:51.621Z,21.43
2022-10-17T12:06:51.606Z,21.40
2022-10-17T12:07:51.598Z,21.40
2022-10-17T12:08:51.590Z,21.43
2022-10-17T12:09:51.577Z,21.42
2022-10-17T12:10:51.582Z,21.32
2022-10-17T12:11:51.582Z,21.27
2022-10-17T12:12:51.543Z,21.27
2022-10-17T12:13:51.540Z,21.22
2022-10-17T12:14:51.524Z,21.21
2022-10-17T12:15:51.523Z,21.19
2022-10-17T12:16:51.508Z,21.19
2022-10-17T12:17:51.498Z,21.16
2022-10-17T12:18:51.493Z,21.16
2022-10-17T12:19:51.468Z,21.17
2022-10-17T12:20:51.472Z,21.16
2022-10-17T12:21:51.447Z,21.21
2022-10-17T12:22:51.440Z,21.22
2022-10-17T12:23:51.430Z,21.22
2022-10-17T12:24:51.492Z,21.25
2022-10-17T12:25:51.421Z,21.17
2022-10-17T12:26:54.057Z,21.14
2022-10-17T12:27:51.386Z,21.19
2022-10-17T12:28:51.429Z,21.22
2022-10-17T12:29:51.366Z,21.21
2022-10-17T12:30:51.375Z,21.25
2022-10-17T12:31:51.345Z,21.34
2022-10-17T12:33:04.206Z,21.35
2022-10-17T12:33:51.326Z,21.38
2022-10-17T12:34:51.314Z,21.40
2022-10-17T12:35:51.310Z,21.38
2022-10-17T12:36:51.298Z,21.37
2022-10-17T12:37:51.284Z,21.42
2022-10-17T12:38:51.281Z,21.29
2022-10-17T12:39:51.260Z,21.27
2022-10-17T12:40:51.296Z,21.25
2022-10-17T12:41:51.241Z,21.28
2022-10-17T12:42:51.234Z,21.28
2022-10-17T12:44:51.375Z,21.29
2022-10-17T12:45:51.212Z,21.28
2022-10-17T12:46:51.238Z,21.31
2022-10-17T12:47:51.182Z,21.25
2022-10-17T12:48:51.170Z,21.19
2022-10-17T12:49:55.760Z,21.22
2022-10-17T12:50:51.173Z,21.25
2022-10-17T12:51:51.134Z,21.10
2022-10-17T12:53:51.115Z,21.14
2022-10-17T12:55:00.243Z,21.10
2022-10-17T12:55:51.117Z,21.09
2022-10-17T12:56:51.090Z,21.10
2022-10-17T12:57:51.076Z,21.07
2022-10-17T12:58:51.070Z,21.12
2022-10-17T12:59:51.053Z,21.16
2022-10-17T13:01:11.839Z,21.13
2022-10-17T13:01:51.071Z,21.17
2022-10-17T13:02:51.030Z,21.21
2022-10-17T13:03:51.010Z,21.28
2022-10-17T13:04:51.003Z,21.37
2022-10-17T13:05:51.008Z,21.43
2022-10-17T13:06:50.988Z,21.46
2022-10-17T13:07:50.970Z,21.58
2022-10-17T13:08:55.405Z,21.58
2022-10-17T13:09:50.954Z,21.58
2022-10-17T13:10:52.554Z,21.56
2022-10-17T13:11:50.923Z,21.61
2022-10-17T13:12:51.015Z,21.67
2022-10-17T13:13:50.912Z,21.72
2022-10-17T13:14:50.895Z,21.74
2022-10-17T13:15:50.899Z,21.80
2022-10-17T13:16:50.876Z,21.82
2022-10-17T13:17:50.870Z,21.83
2022-10-17T13:18:50.858Z,21.79
2022-10-17T13:19:50.861Z,21.82
2022-10-17T13:20:50.841Z,21.75
2022-10-17T13:21:50.846Z,21.74
2022-10-17T13:22:50.813Z,21.56
2022-10-17T13:23:50.807Z,21.56
2022-10-17T13:24:50.790Z,21.62
2022-10-17T13:25:50.800Z,21.64
2022-10-17T13:26:50.773Z,21.58
2022-10-17T13:27:50.767Z,21.56
2022-10-17T13:28:50.848Z,21.47
2022-10-17T13:29:50.745Z,21.42
2022-10-17T13:30:51.440Z,21.35
2022-10-17T13:31:50.732Z,21.31
2022-10-17T13:32:50.710Z,21.34
2022-10-17T13:33:50.705Z,21.35
2022-10-17T13:34:50.688Z,21.29
2022-10-17T13:36:06.175Z,21.28
2022-10-17T13:36:50.681Z,21.24
2022-10-17T13:37:53.911Z,21.19
2022-10-17T13:38:50.668Z,21.14
2022-10-17T13:39:55.753Z,21.17
2022-10-17T13:40:50.889Z,21.17
2022-10-17T13:41:50.711Z,21.21
2022-10-17T13:42:50.610Z,21.24
2022-10-17T13:43:50.599Z,21.28
2022-10-17T13:44:50.594Z,21.37
2022-10-17T13:45:50.584Z,21.42
2022-10-17T13:46:50.581Z,21.44
2022-10-17T13:47:50.561Z,21.47
2022-10-17T13:48:50.548Z,21.44
2022-10-17T13:49:55.023Z,21.43
2022-10-17T13:50:50.556Z,21.40
2022-10-17T13:51:50.520Z,21.35
2022-10-17T13:52:50.503Z,21.32
2022-10-17T13:53:50.500Z,21.34
2022-10-17T13:54:50.486Z,21.25
2022-10-17T13:56:09.163Z,21.17
2022-10-17T13:56:50.558Z,21.10
2022-10-17T13:57:50.461Z,21.12
2022-10-17T13:58:50.441Z,21.09
2022-10-17T13:59:50.441Z,21.09
2022-10-17T14:00:50.483Z,20.99
2022-10-17T14:01:50.435Z,20.97
2022-10-17T14:02:50.396Z,20.95
2022-10-17T14:04:02.202Z,20.94
2022-10-17T14:05:15.724Z,20.88
2022-10-17T14:05:50.394Z,20.85
2022-10-17T14:06:52.211Z,20.82
2022-10-17T14:08:50.336Z,20.73
2022-10-17T14:09:50.348Z,20.70
2022-10-17T14:10:50.312Z,20.69
2022-10-17T14:11:50.346Z,20.66
2022-10-17T14:12:51.151Z,20.70
2022-10-17T14:13:50.290Z,20.77
2022-10-17T14:15:09.862Z,20.84
2022-10-17T14:15:50.284Z,20.79
2022-10-17T14:16:50.266Z,20.84
2022-10-17T14:17:50.247Z,20.85
2022-10-17T14:18:50.226Z,20.77
2022-10-17T14:20:06.577Z,20.73
2022-10-17T14:21:50.232Z,20.76
2022-10-17T14:23:04.501Z,20.80
2022-10-17T14:23:50.197Z,20.80
2022-10-17T14:24:50.168Z,20.82
2022-10-17T14:25:50.161Z,20.82
2022-10-17T14:26:50.164Z,20.84
2022-10-17T14:27:50.143Z,20.76
2022-10-17T14:28:50.196Z,20.70
2022-10-17T14:29:50.114Z,20.73
2022-10-17T14:30:57.958Z,20.73
2022-10-17T14:31:50.121Z,20.67
2022-10-17T14:32:50.097Z,20.70
2022-10-17T14:33:51.220Z,20.76
2022-10-17T14:34:50.068Z,20.76
2022-10-17T14:35:50.053Z,20.79
2022-10-17T14:36:50.054Z,20.88
2022-10-17T14:37:50.036Z,20.88
2022-10-17T14:38:50.028Z,20.88
2022-10-17T14:39:50.012Z,20.91
2022-10-17T14:40:50.010Z,20.92
2022-10-17T14:41:50.001Z,20.92
2022-10-17T14:42:49.975Z,20.95
2022-10-17T14:43:49.976Z,20.94
2022-10-17T14:44:49.957Z,20.94
2022-10-17T14:45:49.945Z,20.92
2022-10-17T14:46:51.134Z,20.99
2022-10-17T14:47:50.399Z,21.01
2022-10-17T14:48:49.916Z,21.06
2022-10-17T14:49:49.906Z,21.06
2022-10-17T14:50:49.913Z,21.06
2022-10-17T14:51:56.965Z,21.12
2022-10-17T14:52:49.877Z,21.19
2022-10-17T14:53:49.872Z,21.21
2022-10-17T14:54:49.855Z,21.22
2022-10-17T14:55:49.843Z,21.19
2022-10-17T14:56:49.850Z,21.21
2022-10-17T14:57:49.821Z,21.22
2022-10-17T14:58:49.802Z,21.22
2022-10-17T14:59:54.575Z,21.24
2022-10-17T15:00:49.794Z,21.21
2022-10-17T15:01:49.800Z,21.14
2022-10-17T15:02:49.763Z,21.04
2022-10-17T15:03:49.757Z,21.03
2022-10-17T15:04:49.752Z,20.98
2022-10-17T15:05:49.761Z,20.97
2022-10-17T15:06:49.736Z,20.95
2022-10-17T15:07:49.720Z,20.97
2022-10-17T15:08:49.715Z,20.98
2022-10-17T15:09:49.702Z,20.92
2022-10-17T15:10:49.680Z,20.94
2022-10-17T15:11:49.692Z,20.91
2022-10-17T15:12:57.571Z,20.85
2022-10-17T15:13:49.655Z,20.82
2022-10-17T15:14:49.637Z,20.79
2022-10-17T15:15:49.631Z,20.77
2022-10-17T15:16:49.636Z,20.76
2022-10-17T15:17:49.613Z,20.76
2022-10-17T15:18:49.592Z,20.77
2022-10-17T15:19:49.584Z,20.79
2022-10-17T15:20:55.398Z,20.79
2022-10-17T15:21:49.583Z,20.76
2022-10-17T15:22:49.553Z,20.70
2022-10-17T15:23:49.550Z,20.72
2022-10-17T15:24:49.534Z,20.67
2022-10-17T15:25:49.543Z,20.67
2022-10-17T15:26:49.706Z,20.64
2022-10-17T15:27:49.506Z,20.57
2022-10-17T15:28:49.544Z,20.54
2022-10-17T15:29:49.484Z,20.51
2022-10-17T15:30:49.471Z,20.51
2022-10-17T15:31:49.478Z,20.52
2022-10-17T15:32:49.451Z,20.50
2022-10-17T15:33:49.439Z,20.42
2022-10-17T15:34:49.423Z,20.38
2022-10-17T15:35:49.943Z,20.35
2022-10-17T15:36:49.442Z,20.29
2022-10-17T15:37:49.398Z,20.31
2022-10-17T15:38:49.378Z,20.28
2022-10-17T15:39:49.380Z,20.24
2022-10-17T15:40:49.365Z,20.20
2022-10-17T15:41:49.349Z,20.16
2022-10-17T15:42:49.360Z,20.14
2022-10-17T15:43:49.334Z,20.13
2022-10-17T15:44:49.314Z,20.10
2022-10-17T15:45:49.314Z,20.06
2022-10-17T15:46:49.289Z,20.11
2022-10-17T15:47:49.303Z,20.08
2022-10-17T15:48:49.273Z,20.03
2022-10-17T15:49:49.267Z,19.98
2022-10-17T15:50:49.255Z,19.86
2022-10-17T15:51:55.176Z,19.77
2022-10-17T15:52:49.250Z,19.77
2022-10-17T15:53:49.219Z,19.65
2022-10-17T15:54:49.206Z,19.59
2022-10-17T15:55:49.201Z,19.56
2022-10-17T15:56:49.182Z,19.51
2022-10-17T15:57:49.197Z,19.51
2022-10-17T15:58:49.162Z,19.44
2022-10-17T15:59:49.153Z,19.47
2022-10-17T16:00:49.182Z,19.46
2022-10-17T16:01:49.153Z,19.43
2022-10-17T16:02:49.124Z,19.43
2022-10-17T16:03:49.110Z,19.44
2022-10-17T16:04:49.098Z,19.44
2022-10-17T16:05:49.088Z,19.41
2022-10-17T16:06:49.096Z,19.40
2022-10-17T16:07:49.071Z,19.37
2022-10-17T16:08:49.058Z,19.37
2022-10-17T16:09:49.047Z,19.33
2022-10-17T16:10:49.043Z,19.33
2022-10-17T16:11:49.043Z,19.39
2022-10-17T16:12:49.015Z,19.33
2022-10-17T16:13:49.008Z,19.39
2022-10-17T16:14:48.993Z,19.39
2022-10-17T16:15:48.995Z,19.37
2022-10-17T16:16:48.989Z,19.33
2022-10-17T16:17:48.976Z,19.25
2022-10-17T16:18:48.965Z,19.14
2022-10-17T16:19:48.953Z,18.95
2022-10-17T16:20:48.930Z,18.87
2022-10-17T16:21:48.937Z,18.80
2022-10-17T16:22:48.909Z,18.78
2022-10-17T16:23:48.904Z,18.75
2022-10-17T16:24:48.885Z,18.66
2022-10-17T16:25:48.886Z,18.58
2022-10-17T16:26:48.882Z,18.51
2022-10-17T16:27:48.861Z,18.44
2022-10-17T16:28:48.922Z,18.37
2022-10-17T16:29:48.842Z,18.33
2022-10-17T16:30:48.845Z,18.30
2022-10-17T16:31:48.815Z,18.27
2022-10-17T16:32:48.803Z,18.21
2022-10-17T16:33:48.807Z,18.15
2022-10-17T16:34:48.779Z,18.12
2022-10-17T16:35:48.793Z,18.05
2022-10-17T16:36:48.760Z,18.03
2022-10-17T16:37:48.757Z,18.00
2022-10-17T16:38:48.752Z,17.96
2022-10-17T16:39:48.735Z,17.99
2022-10-17T16:40:48.739Z,17.95
2022-10-17T16:41:48.716Z,17.93
2022-10-17T16:42:48.702Z,17.90
2022-10-17T16:43:48.694Z,17.90
2022-10-17T16:44:48.689Z,17.84
2022-10-17T16:45:48.697Z,17.84
2022-10-17T16:46:48.665Z,17.84
2022-10-17T16:47:48.656Z,17.82
2022-10-17T16:48:48.641Z,17.81
2022-10-17T16:49:48.639Z,17.84
2022-10-17T16:50:48.654Z,17.82
2022-10-17T16:51:48.637Z,17.79
2022-10-17T16:52:48.599Z,17.78
2022-10-17T16:53:48.597Z,17.75
2022-10-17T16:54:48.585Z,17.75
2022-10-17T16:55:48.589Z,17.74
2022-10-17T16:56:48.555Z,17.75
2022-10-17T16:57:48.930Z,17.74
2022-10-17T16:58:48.535Z,17.74
2022-10-17T16:59:48.528Z,17.74
2022-10-17T17:00:48.612Z,17.74
2022-10-17T17:01:48.513Z,17.70
2022-10-17T17:02:48.498Z,17.70
2022-10-17T17:03:48.486Z,17.66
2022-10-17T17:04:48.473Z,17.66
2022-10-17T17:05:48.478Z,17.68
2022-10-17T17:06:48.457Z,17.66
2022-10-17T17:07:48.439Z,17.63
2022-10-17T17:08:48.436Z,17.63
2022-10-17T17:09:48.429Z,17.64
2022-10-17T17:10:48.419Z,17.62
2022-10-17T17:11:48.408Z,17.63
2022-10-17T17:12:48.398Z,17.62
2022-10-17T17:13:48.400Z,17.56
2022-10-17T17:14:48.373Z,17.55
2022-10-17T17:15:48.380Z,17.56
2022-10-17T17:16:48.356Z,17.56
2022-10-17T17:17:52.431Z,17.56
2022-10-17T17:18:48.341Z,17.55
2022-10-17T17:19:48.331Z,17.52
2022-10-17T17:20:48.326Z,17.51
2022-10-17T17:21:48.297Z,17.51
2022-10-17T17:22:48.300Z,17.48
2022-10-17T17:23:48.281Z,17.49
2022-10-17T17:25:48.278Z,17.46
2022-10-17T17:26:48.245Z,17.44
2022-10-17T17:27:48.241Z,17.44
2022-10-17T17:28:48.271Z,17.41
2022-10-17T17:29:48.215Z,17.43
2022-10-17T17:30:48.220Z,17.41
2022-10-17T17:31:48.190Z,17.40
2022-10-17T17:32:48.196Z,17.38
2022-10-17T17:33:48.210Z,17.33
2022-10-17T17:34:48.165Z,17.31
2022-10-17T17:35:48.160Z,17.31
2022-10-17T17:36:48.145Z,17.26
2022-10-17T17:37:48.129Z,17.28
2022-10-17T17:38:48.127Z,17.25
2022-10-17T17:39:48.109Z,17.26
2022-10-17T17:40:50.686Z,17.26
2022-10-17T17:41:48.093Z,17.23
2022-10-17T17:42:48.114Z,17.19
2022-10-17T17:43:48.069Z,17.19
2022-10-17T17:44:48.063Z,17.14